Ridgeville, Alabama
Current Conditions -  °F | °C
As of 2:35 PM on Monday 26 Jan 2015 (Local Time) from KGAD Reporting Station
Overcast Overcast  
Wind Chill:   Ceiling: 2900
Heat Index:   Visibility: 10mi
Dew Point: -2°   Wind: 12mph
Humidity: 61%   Direction: 330°NNW
Pressure: 29.97"   Gusts: 17mph
Location:  34.0771°N, 86.0689°W
Report Text: KGAD 262035Z 33010G15KT 10SM OVC029 05/M02 A2997 RMK AO1
Loading
Personal Weather Stations






























Interactive Weather Map New forecast layout! Learn more

10-Day Weather Forecast

Advertisements
Track Severe Weather on mobile